sensor_id;sensor_type;location;lat;lon;timestamp;pressure;altitude;pressure_sealevel;temperature;humidity
55347;BME280;41218;55.700;38.270;2022-09-09T00:03:47;100527.41;;;6.16;65.68
55347;BME280;41218;55.700;38.270;2022-09-09T00:19:37;100501.16;;;5.93;66.26
55347;BME280;41218;55.700;38.270;2022-09-09T00:24:53;100496.47;;;5.93;66.38
55347;BME280;41218;55.700;38.270;2022-09-09T00:30:19;100532.22;;;6.11;66.20
55347;BME280;41218;55.700;38.270;2022-09-09T00:35:25;100501.69;;;5.95;66.07
55347;BME280;41218;55.700;38.270;2022-09-09T00:40:54;100553.06;;;6.29;66.38
55347;BME280;41218;55.700;38.270;2022-09-09T00:56:56;100513.94;;;5.97;66.24
55347;BME280;41218;55.700;38.270;2022-09-09T01:02:10;100536.25;;;6.05;66.26
55347;BME280;41218;55.700;38.270;2022-09-09T01:07:17;100544.50;;;6.13;66.03
55347;BME280;41218;55.700;38.270;2022-09-09T01:12:34;100581.03;;;6.31;66.19
55347;BME280;41218;55.700;38.270;2022-09-09T01:17:48;100533.03;;;6.03;66.31
55347;BME280;41218;55.700;38.270;2022-09-09T01:28:20;100554.19;;;6.11;66.12
55347;BME280;41218;55.700;38.270;2022-09-09T01:33:23;100588.13;;;6.32;66.18
55347;BME280;41218;55.700;38.270;2022-09-09T01:38:24;100546.25;;;6.00;66.33
55347;BME280;41218;55.700;38.270;2022-09-09T01:43:25;100595.91;;;6.39;66.40
55347;BME280;41218;55.700;38.270;2022-09-09T01:48:27;100546.41;;;6.04;66.08
55347;BME280;41218;55.700;38.270;2022-09-09T01:53:28;100565.66;;;6.13;66.01
55347;BME280;41218;55.700;38.270;2022-09-09T02:04:04;100547.69;;;5.98;66.04
55347;BME280;41218;55.700;38.270;2022-09-09T02:09:11;100569.03;;;6.10;66.27
55347;BME280;41218;55.700;38.270;2022-09-09T02:14:17;100596.03;;;6.25;66.35
55347;BME280;41218;55.700;38.270;2022-09-09T02:19:27;100591.16;;;6.13;65.92
55347;BME280;41218;55.700;38.270;2022-09-09T02:24:34;100592.78;;;6.14;66.09
55347;BME280;41218;55.700;38.270;2022-09-09T02:29:56;100613.59;;;6.15;66.07
55347;BME280;41218;55.700;38.270;2022-09-09T02:35:06;100588.66;;;5.94;66.24
55347;BME280;41218;55.700;38.270;2022-09-09T02:40:11;100592.81;;;5.92;66.26
55347;BME280;41218;55.700;38.270;2022-09-09T02:45:15;100611.13;;;5.96;66.04
55347;BME280;41218;55.700;38.270;2022-09-09T02:50:24;100627.44;;;6.01;66.05
55347;BME280;41218;55.700;38.270;2022-09-09T02:56:05;100616.03;;;5.86;66.05
55347;BME280;41218;55.700;38.270;2022-09-09T03:01:09;100668.00;;;6.13;65.80
55347;BME280;41218;55.700;38.270;2022-09-09T03:06:10;100616.97;;;5.72;65.64
55347;BME280;41218;55.700;38.270;2022-09-09T03:11:12;100643.34;;;5.91;65.84
55347;BME280;41218;55.700;38.270;2022-09-09T03:16:14;100670.69;;;5.96;66.21
55347;BME280;41218;55.700;38.270;2022-09-09T03:21:15;100624.03;;;5.65;66.15
55347;BME280;41218;55.700;38.270;2022-09-09T03:26:16;100655.91;;;5.83;65.99
55347;BME280;41218;55.700;38.270;2022-09-09T03:31:16;100677.25;;;5.86;65.91
55347;BME280;41218;55.700;38.270;2022-09-09T03:36:17;100626.88;;;5.51;65.76
55347;BME280;41218;55.700;38.270;2022-09-09T03:41:18;100677.06;;;5.82;65.99
55347;BME280;41218;55.700;38.270;2022-09-09T03:46:22;100690.13;;;5.86;66.14
55347;BME280;41218;55.700;38.270;2022-09-09T03:51:23;100656.06;;;5.55;65.96
55347;BME280;41218;55.700;38.270;2022-09-09T03:56:24;100703.69;;;5.82;66.05
55347;BME280;41218;55.700;38.270;2022-09-09T04:01:25;100674.34;;;5.60;66.29
55347;BME280;41218;55.700;38.270;2022-09-09T04:06:26;100687.44;;;5.63;66.62
55347;BME280;41218;55.700;38.270;2022-09-09T04:11:30;100662.66;;;5.46;66.79
55347;BME280;41218;55.700;38.270;2022-09-09T04:16:34;100714.97;;;5.80;67.01
55347;BME280;41218;55.700;38.270;2022-09-09T04:21:41;100722.25;;;5.85;67.13
55347;BME280;41218;55.700;38.270;2022-09-09T04:27:12;100656.41;;;5.54;67.51
55347;BME280;41218;55.700;38.270;2022-09-09T04:32:15;100709.53;;;5.89;67.92
55347;BME280;41218;55.700;38.270;2022-09-09T04:37:15;100684.97;;;5.84;68.12
55347;BME280;41218;55.700;38.270;2022-09-09T04:42:17;100728.41;;;6.13;68.12
55347;BME280;41218;55.700;38.270;2022-09-09T04:47:36;100702.34;;;6.02;67.96
55347;BME280;41218;55.700;38.270;2022-09-09T04:52:36;100744.00;;;6.35;67.82
55347;BME280;41218;55.700;38.270;2022-09-09T04:57:37;100741.94;;;6.41;68.23
55347;BME280;41218;55.700;38.270;2022-09-09T05:03:16;100753.75;;;6.50;68.56
55347;BME280;41218;55.700;38.270;2022-09-09T05:08:38;100725.31;;;6.55;68.24
55347;BME280;41218;55.700;38.270;2022-09-09T05:13:59;100742.16;;;6.71;69.00
55347;BME280;41218;55.700;38.270;2022-09-09T05:44:17;100750.66;;;7.27;68.08
55347;BME280;41218;55.700;38.270;2022-09-09T06:02:08;100720.41;;;7.35;67.23
55347;BME280;41218;55.700;38.270;2022-09-09T06:25:42;100737.31;;;7.98;66.35
55347;BME280;41218;55.700;38.270;2022-09-09T06:30:57;100789.50;;;8.51;65.98
55347;BME280;41218;55.700;38.270;2022-09-09T06:36:21;100784.94;;;8.55;65.53
55347;BME280;41218;55.700;38.270;2022-09-09T06:48:01;100794.34;;;8.83;64.15
55347;BME280;41218;55.700;38.270;2022-09-09T06:53:08;100815.25;;;8.93;64.06
55347;BME280;41218;55.700;38.270;2022-09-09T07:04:05;100752.22;;;8.83;63.23
55347;BME280;41218;55.700;38.270;2022-09-09T07:15:49;100810.59;;;9.57;62.13
55347;BME280;41218;55.700;38.270;2022-09-09T07:21:03;100790.78;;;9.55;61.15
55347;BME280;41218;55.700;38.270;2022-09-09T07:27:01;100786.56;;;9.57;60.39
55347;BME280;41218;55.700;38.270;2022-09-09T07:38:28;100794.34;;;9.76;59.21
55347;BME280;41218;55.700;38.270;2022-09-09T07:43:29;100800.53;;;9.94;58.44
55347;BME280;41218;55.700;38.270;2022-09-09T07:48:32;100850.38;;;10.31;57.79
55347;BME280;41218;55.700;38.270;2022-09-09T07:54:08;100824.19;;;10.16;57.33
55347;BME280;41218;55.700;38.270;2022-09-09T07:59:10;100831.59;;;10.25;57.27
55347;BME280;41218;55.700;38.270;2022-09-09T08:04:21;100858.72;;;10.43;56.86
55347;BME280;41218;55.700;38.270;2022-09-09T08:20:05;100829.47;;;10.21;56.04
55347;BME280;41218;55.700;38.270;2022-09-09T08:25:27;100821.00;;;10.27;55.77
55347;BME280;41218;55.700;38.270;2022-09-09T08:36:45;100812.91;;;10.67;53.81
55347;BME280;41218;55.700;38.270;2022-09-09T08:52:37;100826.88;;;10.71;52.15
55347;BME280;41218;55.700;38.270;2022-09-09T08:57:39;100845.53;;;10.86;52.67
55347;BME280;41218;55.700;38.270;2022-09-09T09:02:57;100841.03;;;10.81;52.11
55347;BME280;41218;55.700;38.270;2022-09-09T09:08:30;100862.72;;;11.04;51.79
55347;BME280;41218;55.700;38.270;2022-09-09T09:18:36;100844.59;;;11.19;52.32
55347;BME280;41218;55.700;38.270;2022-09-09T09:23:58;100850.47;;;11.30;51.31
55347;BME280;41218;55.700;38.270;2022-09-09T09:29:14;100875.25;;;11.38;51.88
55347;BME280;41218;55.700;38.270;2022-09-09T09:34:15;100873.75;;;11.29;51.48
55347;BME280;41218;55.700;38.270;2022-09-09T09:39:32;100816.00;;;11.02;50.41
55347;BME280;41218;55.700;38.270;2022-09-09T09:44:38;100833.88;;;11.17;51.29
55347;BME280;41218;55.700;38.270;2022-09-09T09:49:55;100860.63;;;11.38;50.39
55347;BME280;41218;55.700;38.270;2022-09-09T09:54:58;100854.38;;;11.29;50.54
55347;BME280;41218;55.700;38.270;2022-09-09T10:00:14;100849.22;;;11.39;50.29
55347;BME280;41218;55.700;38.270;2022-09-09T10:10:26;100882.25;;;11.73;49.95
55347;BME280;41218;55.700;38.270;2022-09-09T10:15:56;100849.06;;;11.48;48.34
55347;BME280;41218;55.700;38.270;2022-09-09T10:21:38;100866.78;;;11.59;48.85
55347;BME280;41218;55.700;38.270;2022-09-09T10:26:52;100846.47;;;11.68;49.51
55347;BME280;41218;55.700;38.270;2022-09-09T10:36:59;100876.31;;;11.87;48.45
55347;BME280;41218;55.700;38.270;2022-09-09T10:53:02;100840.25;;;11.71;48.47
55347;BME280;41218;55.700;38.270;2022-09-09T11:03:43;100884.69;;;12.15;47.54
55347;BME280;41218;55.700;38.270;2022-09-09T11:08:45;100862.44;;;11.99;47.39
55347;BME280;41218;55.700;38.270;2022-09-09T11:14:05;100869.50;;;11.96;47.27
55347;BME280;41218;55.700;38.270;2022-09-09T11:24:43;100833.19;;;11.73;48.18
55347;BME280;41218;55.700;38.270;2022-09-09T11:30:22;100870.94;;;12.06;47.70
55347;BME280;41218;55.700;38.270;2022-09-09T11:40:46;100862.00;;;11.85;48.02
55347;BME280;41218;55.700;38.270;2022-09-09T11:45:56;100874.91;;;12.05;47.39
55347;BME280;41218;55.700;38.270;2022-09-09T11:51:24;100855.59;;;12.09;47.07
55347;BME280;41218;55.700;38.270;2022-09-09T11:56:27;100864.94;;;12.32;46.97
55347;BME280;41218;55.700;38.270;2022-09-09T12:01:39;100867.28;;;12.46;46.91
55347;BME280;41218;55.700;38.270;2022-09-09T12:06:48;100819.25;;;12.42;46.25
55347;BME280;41218;55.700;38.270;2022-09-09T12:12:22;100846.47;;;12.68;45.18
55347;BME280;41218;55.700;38.270;2022-09-09T12:33:17;100872.41;;;12.60;45.23
55347;BME280;41218;55.700;38.270;2022-09-09T12:38:30;100819.75;;;12.16;45.31
55347;BME280;41218;55.700;38.270;2022-09-09T12:43:32;100873.63;;;12.47;45.84
55347;BME280;41218;55.700;38.270;2022-09-09T12:48:38;100852.81;;;12.37;45.72
55347;BME280;41218;55.700;38.270;2022-09-09T12:53:44;100850.03;;;12.53;45.68
55347;BME280;41218;55.700;38.270;2022-09-09T12:58:48;100849.16;;;12.65;45.46
55347;BME280;41218;55.700;38.270;2022-09-09T13:03:52;100838.25;;;12.72;44.43
55347;BME280;41218;55.700;38.270;2022-09-09T13:08:54;100836.91;;;12.66;44.08
55347;BME280;41218;55.700;38.270;2022-09-09T13:13:57;100833.84;;;12.39;44.35
55347;BME280;41218;55.700;38.270;2022-09-09T13:18:59;100847.06;;;12.30;44.75
55347;BME280;41218;55.700;38.270;2022-09-09T13:24:01;100842.03;;;12.19;45.22
55347;BME280;41218;55.700;38.270;2022-09-09T13:29:16;100851.00;;;12.29;45.24
55347;BME280;41218;55.700;38.270;2022-09-09T13:34:31;100847.69;;;12.23;45.36
55347;BME280;41218;55.700;38.270;2022-09-09T13:39:37;100845.00;;;12.27;45.31
55347;BME280;41218;55.700;38.270;2022-09-09T13:44:39;100873.28;;;12.48;45.24
55347;BME280;41218;55.700;38.270;2022-09-09T13:49:46;100840.16;;;12.23;44.99
55347;BME280;41218;55.700;38.270;2022-09-09T13:55:07;100828.25;;;12.07;45.08
55347;BME280;41218;55.700;38.270;2022-09-09T14:00:13;100838.69;;;12.14;44.90
55347;BME280;41218;55.700;38.270;2022-09-09T14:05:14;100827.00;;;12.05;44.93
55347;BME280;41218;55.700;38.270;2022-09-09T14:10:16;100861.16;;;12.25;44.72
55347;BME280;41218;55.700;38.270;2022-09-09T14:15:17;100833.66;;;12.03;44.89
55347;BME280;41218;55.700;38.270;2022-09-09T14:20:18;100826.44;;;11.99;44.85
55347;BME280;41218;55.700;38.270;2022-09-09T14:25:19;100848.88;;;12.10;44.81
55347;BME280;41218;55.700;38.270;2022-09-09T14:30:20;100837.25;;;12.04;45.04
55347;BME280;41218;55.700;38.270;2022-09-09T14:35:24;100857.31;;;12.13;44.84
55347;BME280;41218;55.700;38.270;2022-09-09T14:40:24;100847.28;;;12.09;45.02
55347;BME280;41218;55.700;38.270;2022-09-09T14:45:25;100848.69;;;12.02;45.17
55347;BME280;41218;55.700;38.270;2022-09-09T14:50:26;100863.53;;;12.10;45.29
55347;BME280;41218;55.700;38.270;2022-09-09T14:55:27;100880.28;;;12.14;45.53
55347;BME280;41218;55.700;38.270;2022-09-09T15:00:31;100843.06;;;11.87;45.59
55347;BME280;41218;55.700;38.270;2022-09-09T15:05:31;100857.88;;;11.91;45.63
55347;BME280;41218;55.700;38.270;2022-09-09T15:10:32;100835.59;;;11.75;45.67
55347;BME280;41218;55.700;38.270;2022-09-09T15:15:33;100834.94;;;11.66;46.12
55347;BME280;41218;55.700;38.270;2022-09-09T15:20:35;100876.69;;;11.73;46.34
55347;BME280;41218;55.700;38.270;2022-09-09T15:25:37;100830.16;;;11.38;46.44
55347;BME280;41218;55.700;38.270;2022-09-09T15:30:38;100855.19;;;11.41;46.76
55347;BME280;41218;55.700;38.270;2022-09-09T15:35:38;100865.25;;;11.34;47.41
55347;BME280;41218;55.700;38.270;2022-09-09T15:40:39;100860.06;;;11.20;48.02
55347;BME280;41218;55.700;38.270;2022-09-09T15:45:40;100894.41;;;11.31;48.38
55347;BME280;41218;55.700;38.270;2022-09-09T15:50:41;100855.66;;;10.94;48.88
55347;BME280;41218;55.700;38.270;2022-09-09T15:55:41;100869.75;;;10.89;49.32
55347;BME280;41218;55.700;38.270;2022-09-09T16:00:42;100902.03;;;10.97;49.75
55347;BME280;41218;55.700;38.270;2022-09-09T16:05:43;100890.56;;;10.74;50.26
55347;BME280;41218;55.700;38.270;2022-09-09T16:10:44;100878.78;;;10.53;50.63
55347;BME280;41218;55.700;38.270;2022-09-09T16:15:45;100904.56;;;10.45;51.10
55347;BME280;41218;55.700;38.270;2022-09-09T16:20:54;100907.06;;;10.37;51.40
55347;BME280;41218;55.700;38.270;2022-09-09T16:25:55;100903.97;;;10.18;51.86
55347;BME280;41218;55.700;38.270;2022-09-09T16:30:56;100929.97;;;10.17;52.09
55347;BME280;41218;55.700;38.270;2022-09-09T16:36:05;100925.81;;;9.90;52.85
55347;BME280;41218;55.700;38.270;2022-09-09T16:41:07;100931.75;;;9.79;52.95
55347;BME280;41218;55.700;38.270;2022-09-09T16:46:16;100942.66;;;9.76;53.50
55347;BME280;41218;55.700;38.270;2022-09-09T16:51:22;100913.16;;;9.38;53.77
55347;BME280;41218;55.700;38.270;2022-09-09T16:56:30;100916.63;;;9.26;53.88
55347;BME280;41218;55.700;38.270;2022-09-09T17:01:34;100909.09;;;9.06;54.40
55347;BME280;41218;55.700;38.270;2022-09-09T17:06:37;100953.66;;;9.25;54.24
55347;BME280;41218;55.700;38.270;2022-09-09T17:11:39;100934.44;;;8.99;54.75
55347;BME280;41218;55.700;38.270;2022-09-09T17:16:39;100962.31;;;9.06;54.81
55347;BME280;41218;55.700;38.270;2022-09-09T17:21:40;100923.50;;;8.73;55.31
55347;BME280;41218;55.700;38.270;2022-09-09T17:26:41;100931.31;;;8.62;55.25
55347;BME280;41218;55.700;38.270;2022-09-09T17:31:42;100976.34;;;8.75;55.65
55347;BME280;41218;55.700;38.270;2022-09-09T17:36:43;100973.94;;;8.65;56.04
55347;BME280;41218;55.700;38.270;2022-09-09T17:41:43;100945.91;;;8.36;56.06
55347;BME280;41218;55.700;38.270;2022-09-09T17:46:44;100938.47;;;8.19;56.22
55347;BME280;41218;55.700;38.270;2022-09-09T17:51:46;100979.63;;;8.33;56.50
55347;BME280;41218;55.700;38.270;2022-09-09T17:56:47;100940.72;;;8.00;56.61
55347;BME280;41218;55.700;38.270;2022-09-09T18:01:48;100943.66;;;7.95;56.77
55347;BME280;41218;55.700;38.270;2022-09-09T18:06:50;100980.59;;;8.11;56.59
55347;BME280;41218;55.700;38.270;2022-09-09T18:11:54;100938.44;;;7.76;57.08
55347;BME280;41218;55.700;38.270;2022-09-09T18:16:56;100959.81;;;7.79;57.17
55347;BME280;41218;55.700;38.270;2022-09-09T18:21:57;100982.97;;;7.87;57.33
55347;BME280;41218;55.700;38.270;2022-09-09T18:26:58;100950.22;;;7.50;57.49
55347;BME280;41218;55.700;38.270;2022-09-09T18:31:59;100938.50;;;7.36;57.60
55347;BME280;41218;55.700;38.270;2022-09-09T18:37:00;100957.44;;;7.37;57.97
55347;BME280;41218;55.700;38.270;2022-09-09T18:42:01;100949.28;;;7.23;58.36
55347;BME280;41218;55.700;38.270;2022-09-09T18:47:02;100970.00;;;7.21;58.43
55347;BME280;41218;55.700;38.270;2022-09-09T18:52:03;100985.88;;;7.24;58.50
55347;BME280;41218;55.700;38.270;2022-09-09T18:57:03;100986.81;;;7.19;58.86
55347;BME280;41218;55.700;38.270;2022-09-09T19:02:05;100976.84;;;7.01;58.82
55347;BME280;41218;55.700;38.270;2022-09-09T19:07:05;100961.84;;;6.76;58.70
55347;BME280;41218;55.700;38.270;2022-09-09T19:12:06;100978.69;;;6.83;58.81
55347;BME280;41218;55.700;38.270;2022-09-09T19:17:07;100986.13;;;6.82;59.01
55347;BME280;41218;55.700;38.270;2022-09-09T19:22:08;100959.75;;;6.50;59.13
55347;BME280;41218;55.700;38.270;2022-09-09T19:27:13;100951.44;;;6.41;59.32
55347;BME280;41218;55.700;38.270;2022-09-09T19:32:14;100953.00;;;6.34;59.23
55347;BME280;41218;55.700;38.270;2022-09-09T19:37:14;100957.63;;;6.25;59.71
55347;BME280;41218;55.700;38.270;2022-09-09T19:42:15;100972.97;;;6.26;59.76
55347;BME280;41218;55.700;38.270;2022-09-09T19:47:17;100934.97;;;5.96;59.92
55347;BME280;41218;55.700;38.270;2022-09-09T19:52:18;100984.19;;;6.15;59.66
55347;BME280;41218;55.700;38.270;2022-09-09T19:57:19;101009.59;;;6.21;60.01
55347;BME280;41218;55.700;38.270;2022-09-09T20:02:20;100967.59;;;5.84;59.77
55347;BME280;41218;55.700;38.270;2022-09-09T20:07:21;100969.63;;;5.78;59.83
55347;BME280;41218;55.700;38.270;2022-09-09T20:12:25;101012.66;;;5.92;60.09
55347;BME280;41218;55.700;38.270;2022-09-09T20:17:26;100956.44;;;5.53;60.61
55347;BME280;41218;55.700;38.270;2022-09-09T20:22:27;100991.50;;;5.70;60.37
55347;BME280;41218;55.700;38.270;2022-09-09T20:27:27;100980.63;;;5.51;60.53
55347;BME280;41218;55.700;38.270;2022-09-09T20:32:28;100998.22;;;5.50;60.53
55347;BME280;41218;55.700;38.270;2022-09-09T20:37:30;100963.97;;;5.19;60.27
55347;BME280;41218;55.700;38.270;2022-09-09T20:42:31;100991.19;;;5.30;60.53
55347;BME280;41218;55.700;38.270;2022-09-09T20:47:35;101006.84;;;5.29;60.38
55347;BME280;41218;55.700;38.270;2022-09-09T20:52:35;100991.59;;;5.09;60.57
55347;BME280;41218;55.700;38.270;2022-09-09T20:57:37;101040.03;;;5.28;60.61
55347;BME280;41218;55.700;38.270;2022-09-09T21:02:38;101000.28;;;4.97;60.99
55347;BME280;41218;55.700;38.270;2022-09-09T21:07:38;101019.88;;;5.05;60.83
55347;BME280;41218;55.700;38.270;2022-09-09T21:12:39;100999.16;;;4.85;60.97
55347;BME280;41218;55.700;38.270;2022-09-09T21:17:40;101038.75;;;5.06;61.10
55347;BME280;41218;55.700;38.270;2022-09-09T21:22:40;101036.63;;;5.03;60.85
55347;BME280;41218;55.700;38.270;2022-09-09T21:27:41;101004.69;;;4.79;60.72
55347;BME280;41218;55.700;38.270;2022-09-09T21:32:42;101043.09;;;4.93;61.09
55347;BME280;41218;55.700;38.270;2022-09-09T21:37:42;100996.53;;;4.60;60.91
55347;BME280;41218;55.700;38.270;2022-09-09T21:42:43;101050.69;;;4.82;60.86
55347;BME280;41218;55.700;38.270;2022-09-09T21:47:45;100981.84;;;4.37;60.98
55347;BME280;41218;55.700;38.270;2022-09-09T21:52:49;101004.97;;;4.45;60.96
55347;BME280;41218;55.700;38.270;2022-09-09T21:57:50;100991.53;;;4.30;61.39
55347;BME280;41218;55.700;38.270;2022-09-09T22:02:53;101013.88;;;4.37;61.01
55347;BME280;41218;55.700;38.270;2022-09-09T22:07:54;101046.69;;;4.56;61.03
55347;BME280;41218;55.700;38.270;2022-09-09T22:12:55;101058.03;;;4.49;61.18
55347;BME280;41218;55.700;38.270;2022-09-09T22:17:56;101059.84;;;4.40;61.25
55347;BME280;41218;55.700;38.270;2022-09-09T22:23:00;101056.63;;;4.33;61.36
55347;BME280;41218;55.700;38.270;2022-09-09T22:28:02;100990.50;;;3.88;61.17
55347;BME280;41218;55.700;38.270;2022-09-09T22:33:03;101011.72;;;3.96;61.51
55347;BME280;41218;55.700;38.270;2022-09-09T22:38:04;101052.22;;;4.18;61.51
55347;BME280;41218;55.700;38.270;2022-09-09T22:43:07;101058.78;;;4.17;61.37
55347;BME280;41218;55.700;38.270;2022-09-09T22:48:13;101056.63;;;4.14;61.29
55347;BME280;41218;55.700;38.270;2022-09-09T22:53:16;101050.69;;;4.07;61.35
55347;BME280;41218;55.700;38.270;2022-09-09T22:58:18;101028.84;;;3.83;61.34
55347;BME280;41218;55.700;38.270;2022-09-09T23:03:20;101033.81;;;3.80;61.67
55347;BME280;41218;55.700;38.270;2022-09-09T23:08:24;101011.91;;;3.61;61.21
55347;BME280;41218;55.700;38.270;2022-09-09T23:13:26;101066.34;;;3.82;61.46
55347;BME280;41218;55.700;38.270;2022-09-09T23:18:30;101057.09;;;3.78;61.44
55347;BME280;41218;55.700;38.270;2022-09-09T23:23:33;101014.22;;;3.49;61.58
55347;BME280;41218;55.700;38.270;2022-09-09T23:28:36;101003.19;;;3.35;61.78
55347;BME280;41218;55.700;38.270;2022-09-09T23:33:38;101045.59;;;3.57;61.54
55347;BME280;41218;55.700;38.270;2022-09-09T23:38:40;101058.41;;;3.56;61.58
55347;BME280;41218;55.700;38.270;2022-09-09T23:43:41;101038.94;;;3.39;61.57
55347;BME280;41218;55.700;38.270;2022-09-09T23:48:45;101039.00;;;3.34;61.89
55347;BME280;41218;55.700;38.270;2022-09-09T23:53:51;101001.63;;;3.00;61.79
55347;BME280;41218;55.700;38.270;2022-09-09T23:58:53;100997.31;;;2.94;61.74
